Time;durP1;ratioP1;P1;durP2;ratioP2;P2;SDS_P1;SDS_P2;PMS_P1;PMS_P2;Temp;Humidity;BMP_temperature;BMP_pressure;BME280_temperature;BME280_humidity;BME280_pressure;Samples;Min_cycle;Max_cycle;Signal;HPM_P1;HPM_P2
2022/02/09 00:00:00;;;;;;;15.40;6.30;;;;;;;7.57;100.00;102182.91;6254107;28;20045;-81
2022/02/09 00:03:09;;;;;;;13.98;6.32;;;;;;;7.58;100.00;102177.66;6254536;28;20425;-81
2022/02/09 00:06:16;;;;;;;19.55;6.38;;;;;;;7.58;100.00;102180.25;6259031;28;20081;-82
2022/02/09 00:09:17;;;;;;;13.20;5.85;;;;;;;7.57;100.00;102182.91;6255702;28;20064;-81
2022/02/09 00:12:24;;;;;;;15.77;7.00;;;;;;;7.58;100.00;102167.19;6258267;28;20046;-81
2022/02/09 00:15:34;;;;;;;16.38;6.22;;;;;;;7.59;100.00;102170.69;6260207;28;20049;-82
2022/02/09 00:18:44;;;;;;;11.95;6.03;;;;;;;7.67;100.00;102175.75;6255285;28;20044;-81
2022/02/09 00:22:07;;;;;;;12.13;6.00;;;;;;;7.66;100.00;102174.03;6257694;28;20474;-81
2022/02/09 00:25:33;;;;;;;12.85;5.57;;;;;;;7.71;100.00;102173.06;6247270;28;20056;-81
2022/02/09 00:32:14;;;;;;;10.55;4.95;;;;;;;7.74;100.00;102159.94;6247412;28;20044;-81
2022/02/09 00:35:46;;;;;;;10.68;5.53;;;;;;;7.75;100.00;102150.31;6260655;28;20132;-81
2022/02/09 00:39:08;;;;;;;9.82;4.85;;;;;;;7.73;100.00;102141.66;6246551;28;20148;-82
2022/02/09 00:42:27;;;;;;;18.50;5.97;;;;;;;7.78;100.00;102137.19;6266533;28;20076;-82
2022/02/09 00:59:19;;;;;;;9.50;4.25;;;;;;;7.84;100.00;102142.28;6265239;28;20049;-82
2022/02/09 01:33:01;;;;;;;10.35;3.58;;;;;;;7.85;100.00;102155.34;6271381;28;20081;-82
2022/02/09 01:39:17;;;;;;;7.50;2.80;;;;;;;7.94;100.00;102164.78;6275500;28;20049;-81
2022/02/09 01:55:46;;;;;;;7.57;3.67;;;;;;;7.86;100.00;102157.09;6275227;28;20085;-81
2022/02/09 01:58:48;;;;;;;5.53;2.92;;;;;;;7.83;100.00;102151.91;6275296;28;20051;-80
2022/02/09 02:01:50;;;;;;;11.60;4.50;;;;;;;7.79;100.00;102131.91;6274842;28;20523;-81
2022/02/09 02:04:51;;;;;;;7.10;3.50;;;;;;;7.77;100.00;102135.47;6257664;28;20052;-82
2022/02/09 02:07:56;;;;;;;8.90;4.13;;;;;;;7.80;100.00;102143.25;6250608;28;20076;-82
2022/02/09 02:11:06;;;;;;;7.05;4.10;;;;;;;7.80;100.00;102131.03;6250208;28;20046;-81
2022/02/09 02:14:18;;;;;;;7.95;3.50;;;;;;;7.82;100.00;102138.88;6250453;28;20045;-81
2022/02/09 02:17:26;;;;;;;5.82;3.55;;;;;;;7.83;100.00;102133.59;6250247;28;20076;-81
2022/02/09 02:20:43;;;;;;;7.65;2.72;;;;;;;7.83;100.00;102145.81;6250413;28;20524;-81
2022/02/09 02:24:08;;;;;;;8.10;4.03;;;;;;;7.84;100.00;102137.91;6274859;28;20060;-81
2022/02/09 02:27:39;;;;;;;6.35;2.60;;;;;;;7.83;100.00;102128.34;6274889;28;20106;-81
2022/02/09 02:47:47;;;;;;;5.63;2.78;;;;;;;7.87;100.00;102130.03;6274109;28;20045;-82
2022/02/09 02:57:43;;;;;;;5.03;2.55;;;;;;;7.81;100.00;102114.44;6266297;28;20057;-80
2022/02/09 03:14:06;;;;;;;5.75;3.17;;;;;;;7.77;100.00;102106.69;6273344;28;20084;-80
2022/02/09 03:17:13;;;;;;;11.45;3.03;;;;;;;7.74;100.00;102109.34;6273230;28;20508;-81
2022/02/09 03:20:22;;;;;;;5.32;2.92;;;;;;;7.73;100.00;102097.19;6272874;28;20111;-80
2022/02/09 03:23:41;;;;;;;6.20;3.30;;;;;;;7.72;100.00;102100.66;6265436;28;20455;-80
2022/02/09 03:27:00;;;;;;;7.97;3.53;;;;;;;7.74;100.00;102099.75;6273148;28;20045;-81
2022/02/09 03:43:30;;;;;;;9.95;3.60;;;;;;;7.68;100.00;102080.72;6256964;28;20057;-81
2022/02/09 03:46:53;;;;;;;7.68;3.20;;;;;;;7.65;100.00;102075.53;6248247;28;20057;-80
2022/02/09 03:53:26;;;;;;;6.38;3.92;;;;;;;7.63;100.00;102065.97;6247173;28;20050;-81
2022/02/09 03:56:31;;;;;;;7.38;4.53;;;;;;;7.63;100.00;102070.34;6247924;28;20053;-81
2022/02/09 03:59:34;;;;;;;11.40;4.68;;;;;;;7.65;100.00;102063.31;6253160;28;20048;-80
2022/02/09 04:02:36;;;;;;;7.45;4.22;;;;;;;7.62;100.00;102068.59;6247364;28;20046;-81
2022/02/09 04:05:38;;;;;;;7.25;4.03;;;;;;;7.66;100.00;102072.00;6261668;28;20041;-80
2022/02/09 04:08:46;;;;;;;7.65;3.65;;;;;;;7.63;100.00;102065.97;6247450;28;20052;-81
2022/02/09 04:11:53;;;;;;;8.18;3.85;;;;;;;7.67;100.00;102065.88;6247377;28;20049;-81
2022/02/09 04:15:01;;;;;;;9.75;4.18;;;;;;;7.68;100.00;102055.41;6247322;28;20065;-80
2022/02/09 04:18:15;;;;;;;8.77;4.32;;;;;;;7.64;100.00;102048.50;6247648;28;20056;-80
2022/02/09 04:38:05;;;;;;;7.82;4.00;;;;;;;7.63;100.00;102039.81;6264496;28;20053;-80
2022/02/09 04:41:43;;;;;;;;;;;;;;;7.62;100.00;102042.44;6256842;28;20699;-81
2022/02/09 04:44:57;;;;;;;6.35;3.05;;;;;;;7.62;100.00;102043.28;6248473;28;20376;-80
2022/02/09 04:48:12;;;;;;;9.50;3.30;;;;;;;7.60;100.00;102046.84;6246289;28;20072;-81
2022/02/09 04:51:20;;;;;;;6.35;3.25;;;;;;;7.57;100.00;102041.66;6253792;28;20534;-80
2022/02/09 04:54:30;;;;;;;8.93;4.10;;;;;;;7.59;100.00;102037.28;6263272;28;20619;-80
2022/02/09 04:57:38;;;;;;;7.15;3.67;;;;;;;7.61;100.00;102038.09;6264702;28;20052;-80
2022/02/09 05:00:48;;;;;;;5.40;3.17;;;;;;;7.57;100.00;102039.91;6271286;28;20048;-81
2022/02/09 05:04:13;;;;;;;7.20;3.72;;;;;;;7.61;100.00;102040.72;6264638;28;20661;-81
2022/02/09 05:21:21;;;;;;;4.65;2.65;;;;;;;7.63;100.00;102023.25;6275647;28;20048;-80
2022/02/09 05:24:37;;;;;;;5.72;2.97;;;;;;;7.60;100.00;102029.38;6276042;28;20091;-80
2022/02/09 05:27:49;;;;;;;4.03;2.60;;;;;;;7.57;100.00;102029.44;6263008;28;20084;-80
2022/02/09 05:30:52;;;;;;;4.22;2.00;;;;;;;7.56;100.00;102026.88;6266906;28;20041;-81
2022/02/09 05:33:53;;;;;;;5.45;2.92;;;;;;;7.52;100.00;102026.06;6273624;28;20045;-81
2022/02/09 05:36:56;;;;;;;5.13;2.15;;;;;;;7.51;100.00;102011.25;6275816;28;20053;-80
2022/02/09 05:39:58;;;;;;;5.13;2.33;;;;;;;7.50;100.00;102017.41;6275185;28;20490;-80
2022/02/09 05:43:00;;;;;;;4.60;2.67;;;;;;;7.48;100.00;102013.94;6275870;28;20049;-81
2022/02/09 05:46:33;;;;;;;2.08;1.80;;;;;;;7.49;100.00;102015.66;6275604;28;20488;-80
2022/02/09 05:49:38;;;;;;;3.38;2.22;;;;;;;7.51;100.00;102024.34;6261869;28;20052;-80
2022/02/09 05:52:57;;;;;;;2.53;1.45;;;;;;;7.51;100.00;102026.97;6250738;28;20092;-81
2022/02/09 05:56:08;;;;;;;2.22;1.50;;;;;;;7.53;100.00;102021.69;6250744;28;20053;-81
2022/02/09 05:59:28;;;;;;;3.05;2.03;;;;;;;7.50;100.00;102016.53;6250574;28;20099;-81
2022/02/09 06:02:29;;;;;;;3.83;2.05;;;;;;;7.54;100.00;102034.75;6250625;28;20064;-81
2022/02/09 06:05:31;;;;;;;4.10;1.38;;;;;;;7.56;100.00;102021.63;6263851;28;20044;-80
2022/02/09 06:08:33;;;;;;;2.60;1.50;;;;;;;7.59;100.00;102022.44;6275627;28;20053;-81
2022/02/09 06:11:42;;;;;;;2.13;1.23;;;;;;;7.55;100.00;102022.53;6274761;28;20044;-81
2022/02/09 06:15:01;;;;;;;2.20;1.50;;;;;;;7.56;100.00;102025.09;6275218;28;20052;-81
2022/02/09 06:21:38;;;;;;;6.25;1.80;;;;;;;7.58;100.00;102025.91;6197976;28;20047;-81
2022/02/09 06:24:41;;;;;;;2.05;1.55;;;;;;;7.55;100.00;102028.63;6198306;28;20065;-81
2022/02/09 06:27:44;;;;;;;4.65;1.98;;;;;;;7.56;100.00;102019.88;6270225;28;20508;-79
2022/02/09 06:30:45;;;;;;;2.45;1.45;;;;;;;7.61;100.00;102018.03;6274163;28;20052;-78
2022/02/09 06:33:47;;;;;;;3.05;1.90;;;;;;;7.65;100.00;102018.81;6272061;28;20052;-82
2022/02/09 06:36:56;;;;;;;9.43;1.63;;;;;;;7.65;100.00;102021.44;6269608;28;20052;-84
2022/02/09 06:40:00;;;;;;;3.20;2.03;;;;;;;7.56;100.00;102012.03;6273697;28;20188;-85
2022/02/09 06:43:04;;;;;;;1.77;1.65;;;;;;;7.56;100.00;102011.16;6274817;28;20052;-84
2022/02/09 06:46:05;;;;;;;2.65;2.05;;;;;;;7.59;100.00;102009.34;6274686;28;20049;-83
2022/02/09 06:49:09;;;;;;;1.98;1.75;;;;;;;7.59;100.00;102017.22;6273675;28;20057;-83
2022/02/09 06:52:10;;;;;;;2.33;1.88;;;;;;;7.58;100.00;102007.59;6271575;28;20053;-84
2022/02/09 06:55:16;;;;;;;3.60;1.90;;;;;;;7.62;100.00;102029.34;6269028;28;20049;-85
2022/02/09 06:58:22;;;;;;;3.92;2.60;;;;;;;7.59;100.00;102021.59;6273753;28;20427;-83
2022/02/09 07:01:23;;;;;;;3.15;1.80;;;;;;;7.61;100.00;102014.53;6262713;28;20048;-85
2022/02/09 07:04:26;;;;;;;1.75;1.60;;;;;;;7.56;100.00;102024.25;6249705;28;20056;-85
2022/02/09 07:07:27;;;;;;;3.60;2.65;;;;;;;7.61;100.00;102022.41;6249944;28;20045;-84
2022/02/09 07:10:29;;;;;;;3.75;1.98;;;;;;;7.59;100.00;102026.81;6249213;28;20045;-84
2022/02/09 07:13:31;;;;;;;4.03;2.40;;;;;;;7.58;100.00;102022.44;6249285;28;20056;-84
2022/02/09 07:16:33;;;;;;;2.00;1.70;;;;;;;7.65;100.00;102020.59;6249670;28;20056;-84
2022/02/09 07:19:34;;;;;;;2.13;1.70;;;;;;;7.63;100.00;102026.72;6248943;28;20049;-84
2022/02/09 07:22:37;;;;;;;3.05;1.75;;;;;;;7.59;100.00;102025.06;6260472;28;20064;-84
2022/02/09 07:25:46;;;;;;;4.28;2.22;;;;;;;7.58;100.00;102025.06;6273571;28;20056;-84
2022/02/09 07:28:49;;;;;;;1.90;1.58;;;;;;;7.61;100.00;102032.84;6261860;28;20179;-85
2022/02/09 07:31:50;;;;;;;2.75;1.85;;;;;;;7.58;100.00;102025.91;6273689;28;20040;-84
2022/02/09 07:34:52;;;;;;;2.50;1.92;;;;;;;7.58;100.00;102033.78;6267664;28;20056;-84
2022/02/09 07:37:53;;;;;;;4.57;1.85;;;;;;;7.59;100.00;102021.59;6272810;28;20049;-84
2022/02/09 07:40:58;;;;;;;2.30;1.33;;;;;;;7.60;100.00;102018.06;6272490;28;20431;-84
2022/02/09 07:44:14;;;;;;;2.15;1.55;;;;;;;7.61;100.00;102015.41;6273004;28;20496;-83
2022/02/09 07:47:37;;;;;;;2.05;1.55;;;;;;;7.66;100.00;102017.94;6272535;28;20138;-84
2022/02/09 07:50:41;;;;;;;5.15;3.30;;;;;;;7.59;100.00;102021.59;6258437;28;20041;-83
2022/02/09 07:53:49;;;;;;;3.53;2.10;;;;;;;7.58;100.00;102004.13;6268044;28;20385;-82
2022/02/09 07:56:51;;;;;;;3.60;1.83;;;;;;;7.65;100.00;102015.34;6272627;28;20059;-83
2022/02/09 07:59:54;;;;;;;5.03;1.98;;;;;;;7.62;100.00;102022.34;6270073;28;20052;-84
2022/02/09 08:02:57;;;;;;;5.70;2.28;;;;;;;7.73;100.00;102016.06;6272318;28;20435;-83
2022/02/09 08:05:58;;;;;;;3.05;1.75;;;;;;;7.70;100.00;102024.81;6272546;28;20491;-84
2022/02/09 08:09:06;;;;;;;7.30;1.98;;;;;;;7.72;100.00;102022.16;6269507;28;20057;-82
2022/02/09 08:29:27;;;;;;;4.53;2.42;;;;;;;7.76;100.00;102000.28;6257451;28;20088;-90
2022/02/09 08:32:40;;;;;;;3.10;2.13;;;;;;;7.72;100.00;102002.13;6265566;28;20488;-83
2022/02/09 08:35:41;;;;;;;3.35;1.85;;;;;;;7.73;100.00;102002.97;6252417;28;20060;-83
2022/02/09 08:38:44;;;;;;;3.15;2.30;;;;;;;7.75;100.00;101993.31;6248983;28;20092;-89
2022/02/09 08:41:45;;;;;;;4.47;2.33;;;;;;;7.77;100.00;101992.41;6262946;28;20041;-89
2022/02/09 08:44:46;;;;;;;3.38;2.05;;;;;;;7.81;100.00;101987.94;6287755;28;20492;-86
2022/02/09 08:47:49;;;;;;;2.88;1.98;;;;;;;7.77;100.00;101997.66;6256103;28;20053;-87
2022/02/09 08:50:57;;;;;;;3.83;1.63;;;;;;;7.82;100.00;101993.16;6270293;28;20042;-89
2022/02/09 08:53:58;;;;;;;3.47;2.17;;;;;;;7.91;100.00;101989.50;6261556;28;20592;-85
2022/02/09 08:57:07;;;;;;;2.83;1.52;;;;;;;7.91;100.00;101991.25;6271978;28;20049;-82
2022/02/09 09:00:17;;;;;;;2.72;1.67;;;;;;;7.92;100.00;101983.34;6264683;28;20045;-86
2022/02/09 09:03:24;;;;;;;2.78;1.33;;;;;;;8.03;100.00;101983.97;6260001;28;20501;-83
2022/02/09 09:06:27;;;;;;;3.88;1.60;;;;;;;8.07;100.00;101992.59;6266239;28;20053;-89
2022/02/09 09:09:42;;;;;;;3.88;1.33;;;;;;;8.14;100.00;101991.59;6262185;28;20523;-87
2022/02/09 10:03:59;;;;;;;1.55;1.27;;;;;;;8.05;100.00;102000.50;6281489;28;20045;-88
2022/02/09 10:31:08;;;;;;;2.42;1.40;;;;;;;8.31;100.00;101991.16;6274043;28;20045;-89
2022/02/09 10:34:11;;;;;;;4.82;1.60;;;;;;;8.17;100.00;101986.25;6255519;28;20053;-83
2022/02/09 10:37:13;;;;;;;3.70;1.55;;;;;;;8.13;100.00;101990.72;6257360;28;20132;-87
2022/02/09 10:40:35;;;;;;;2.50;1.60;;;;;;;8.20;100.00;101982.72;6278689;28;20045;-82
2022/02/09 10:43:37;;;;;;;1.65;1.27;;;;;;;8.27;100.00;101979.94;6252151;28;20093;-87
2022/02/09 10:46:48;;;;;;;1.48;1.27;;;;;;;8.38;100.00;101983.16;6274997;28;20036;-89
2022/02/09 10:50:18;;;;;;;1.20;1.10;;;;;;;8.42;100.00;101977.88;6274517;28;20056;-88
2022/02/09 10:53:20;;;;;;;1.17;0.98;;;;;;;8.59;100.00;101981.78;6269323;28;20060;-86
2022/02/09 10:56:22;;;;;;;1.70;1.17;;;;;;;8.53;100.00;101983.69;6262242;28;20049;-87
2022/02/09 10:59:37;;;;;;;2.17;1.17;;;;;;;8.53;100.00;101976.69;6270302;28;20048;-90
2022/02/09 11:02:39;;;;;;;1.70;1.15;;;;;;;8.64;100.00;101979.91;6250438;28;20154;-88
2022/02/09 11:05:43;;;;;;;2.38;1.40;;;;;;;8.62;100.00;101981.69;6258989;28;20048;-86
2022/02/09 11:08:44;;;;;;;3.38;1.50;;;;;;;8.67;100.00;101980.72;6273876;28;20053;-85
2022/02/09 11:11:47;;;;;;;4.40;1.58;;;;;;;8.81;100.00;101983.84;6271912;28;21498;-85
2022/02/09 11:14:49;;;;;;;2.28;1.60;;;;;;;8.72;100.00;101982.34;6263644;28;20041;-85
2022/02/09 11:17:52;;;;;;;1.38;1.27;;;;;;;8.68;100.00;101985.09;6268271;28;20048;-85
2022/02/09 11:21:10;;;;;;;4.05;1.50;;;;;;;8.73;100.00;101981.44;6270635;28;20048;-84
2022/02/09 11:24:18;;;;;;;1.73;1.23;;;;;;;8.66;100.00;101979.00;6270581;28;20048;-88
2022/02/09 11:27:26;;;;;;;1.40;1.30;;;;;;;8.63;100.00;101974.72;6265257;28;20049;-86
2022/02/09 11:30:34;;;;;;;2.78;1.50;;;;;;;8.79;100.00;101977.78;6266332;28;20048;-85
2022/02/09 11:34:06;;;;;;;4.03;2.17;;;;;;;8.69;100.00;101994.66;6268126;28;20049;-79
2022/02/09 11:37:12;;;;;;;2.25;1.63;;;;;;;8.62;100.00;101983.44;6273321;28;20044;-82
2022/02/09 11:40:23;;;;;;;2.33;1.48;;;;;;;8.64;100.00;101987.75;6272950;28;20435;-84
2022/02/09 11:43:38;;;;;;;4.22;1.58;;;;;;;8.73;100.00;101985.81;6274755;28;20045;-84
2022/02/09 11:47:11;;;;;;;1.98;1.52;;;;;;;8.67;100.00;101986.81;6274093;28;20114;-82
2022/02/09 11:57:22;;;;;;;4.10;1.80;;;;;;;8.85;100.00;101970.59;6273922;28;20048;-84
2022/02/09 12:00:49;;;;;;;3.83;1.60;;;;;;;8.92;100.00;101971.31;6262452;28;20049;-84
2022/02/09 12:10:50;;;;;;;1.85;1.50;;;;;;;9.25;100.00;101977.38;6250935;28;20037;-86
2022/02/09 12:13:56;;;;;;;1.95;1.10;;;;;;;9.15;100.00;101970.69;6250536;28;20046;-86
2022/02/09 12:17:24;;;;;;;2.13;1.00;;;;;;;9.08;100.00;101956.00;6251391;28;20056;-82
2022/02/09 12:20:28;;;;;;;1.70;1.02;;;;;;;9.08;100.00;101970.00;6256926;28;20053;-83
2022/02/09 12:23:40;;;;;;;1.10;1.00;;;;;;;9.08;100.00;101958.63;6257202;28;20218;-82
2022/02/09 12:26:52;;;;;;;1.33;1.20;;;;;;;8.99;100.00;101956.25;6259032;28;20496;-84
2022/02/09 12:29:59;;;;;;;1.63;1.23;;;;;;;8.99;100.00;101953.66;6262377;28;20041;-80
2022/02/09 12:33:01;;;;;;;1.25;1.10;;;;;;;9.08;100.00;101950.78;6254803;28;20053;-81
2022/02/09 12:36:12;;;;;;;2.72;1.25;;;;;;;9.16;100.00;101946.19;6261801;28;20060;-81
2022/02/09 12:39:15;;;;;;;2.78;1.20;;;;;;;9.32;100.00;101946.63;6258528;28;20463;-81
2022/02/09 12:42:18;;;;;;;1.48;0.98;;;;;;;9.31;100.00;101955.38;6265905;28;20045;-76
2022/02/09 12:45:22;;;;;;;2.50;1.38;;;;;;;9.39;100.00;101958.63;6272011;28;20103;-77
2022/02/09 12:48:24;;;;;;;2.08;1.20;;;;;;;9.18;100.00;101965.38;6271856;28;20053;-80
2022/02/09 12:51:28;;;;;;;2.17;1.73;;;;;;;9.08;100.00;101951.66;6258754;28;20053;-80
2022/02/09 12:54:31;;;;;;;1.95;1.67;;;;;;;9.04;100.00;101942.16;6273625;28;20071;-85
2022/02/09 12:57:38;;;;;;;4.85;1.98;;;;;;;9.06;100.00;101956.06;6275083;28;20049;-87
2022/02/09 13:00:43;;;;;;;5.53;2.70;;;;;;;9.08;100.00;101949.03;6271046;28;20041;-88
2022/02/09 13:03:45;;;;;;;4.22;1.73;;;;;;;9.13;100.00;101936.66;6254087;28;20054;-86
2022/02/09 13:06:46;;;;;;;2.67;1.58;;;;;;;9.07;100.00;101946.44;6247995;28;20045;-86
2022/02/09 13:09:53;;;;;;;2.10;1.35;;;;;;;9.08;100.00;101951.66;6248160;28;20052;-86
2022/02/09 13:12:57;;;;;;;4.90;1.55;;;;;;;9.09;100.00;101937.63;6249305;28;20500;-87
2022/02/09 13:16:10;;;;;;;2.78;1.50;;;;;;;9.01;100.00;101939.59;6248301;28;20056;-85
2022/02/09 13:19:38;;;;;;;2.25;1.80;;;;;;;8.99;100.00;101941.41;6248107;28;20065;-86
2022/02/09 13:51:39;;;;;;;2.47;1.75;;;;;;;8.98;100.00;101944.06;6248305;28;20421;-86
2022/02/09 14:07:51;;;;;;;3.85;1.98;;;;;;;8.95;100.00;101945.03;6240662;28;20042;-85
2022/02/09 14:11:07;;;;;;;5.65;1.90;;;;;;;8.89;100.00;101946.03;6250772;28;20053;-86
2022/02/09 14:54:16;;;;;;;;;;;;;;;8.88;100.00;101951.31;6251242;28;20045;-87
2022/02/09 14:57:22;;;;;;;4.03;2.30;;;;;;;8.86;100.00;101950.53;6250182;28;20480;-86
2022/02/09 15:00:24;;;;;;;6.18;1.92;;;;;;;8.83;100.00;101954.06;6250812;28;20557;-88
2022/02/09 15:07:14;;;;;;;2.83;2.03;;;;;;;8.82;100.00;101959.38;6214249;28;20045;-87
2022/02/09 15:10:20;;;;;;;4.10;2.28;;;;;;;8.83;100.00;101956.69;6249969;28;20049;-86
2022/02/09 15:13:32;;;;;;;2.88;1.75;;;;;;;8.84;100.00;101957.56;6251299;28;20060;-90
2022/02/09 15:16:43;;;;;;;3.38;2.28;;;;;;;8.77;100.00;101967.34;6250815;28;20054;-87
2022/02/09 15:20:07;;;;;;;3.53;2.28;;;;;;;8.77;100.00;101963.88;6249580;28;20055;-88
2022/02/09 15:23:08;;;;;;;3.00;1.98;;;;;;;8.74;100.00;101954.31;6249756;28;20049;-87
2022/02/09 15:26:10;;;;;;;3.45;2.05;;;;;;;8.73;100.00;101952.59;6249825;28;20071;-86
2022/02/09 15:29:15;;;;;;;5.60;2.65;;;;;;;8.73;100.00;101963.09;6249844;28;20060;-86
2022/02/09 15:32:32;;;;;;;3.20;1.95;;;;;;;8.63;100.00;101952.00;6251443;28;20050;-87
2022/02/09 15:35:37;;;;;;;3.50;2.00;;;;;;;8.60;100.00;101954.69;6249214;28;20064;-86
2022/02/09 15:38:45;;;;;;;2.60;1.63;;;;;;;8.59;100.00;101954.72;6249170;28;20045;-87
2022/02/09 15:42:03;;;;;;;3.67;2.28;;;;;;;8.57;100.00;101962.59;6248915;28;20042;-87
2022/02/09 16:08:42;;;;;;;2.92;1.80;;;;;;;8.58;100.00;101966.09;6248457;28;20140;-86
2022/02/09 16:21:59;;;;;;;4.55;2.65;;;;;;;8.63;100.00;101961.63;6248870;28;20053;-83
2022/02/09 16:25:23;;;;;;;4.70;2.67;;;;;;;8.49;100.00;101963.69;6248182;28;20053;-83
2022/02/09 16:38:52;;;;;;;4.10;2.50;;;;;;;8.43;100.00;101958.63;6351950;27;20370;-84
2022/02/09 16:45:12;;;;;;;4.10;2.78;;;;;;;8.44;100.00;101960.34;6344227;28;20056;-83
2022/02/09 16:48:16;;;;;;;5.07;2.65;;;;;;;8.46;100.00;101961.16;6344369;28;20058;-84
2022/02/09 16:51:20;;;;;;;4.70;2.92;;;;;;;8.41;100.00;101961.28;6343792;28;20059;-84
2022/02/09 16:54:32;;;;;;;4.07;2.28;;;;;;;8.45;100.00;101965.56;6332510;28;20517;-83
2022/02/09 17:15:27;;;;;;;5.95;3.33;;;;;;;8.29;100.00;101964.16;6336051;28;20056;-79
2022/02/09 17:21:14;;;;;;;6.10;3.05;;;;;;;8.25;100.00;101968.59;6342767;28;20427;-78
2022/02/09 17:24:15;;;;;;;4.25;2.75;;;;;;;8.24;100.00;101956.41;6342975;28;20479;-81
2022/02/09 17:27:20;;;;;;;5.40;2.50;;;;;;;8.24;100.00;101953.81;6343392;28;20048;-81
2022/02/09 17:30:43;;;;;;;5.18;2.72;;;;;;;8.32;100.00;101953.63;6342754;28;20070;-78
2022/02/09 17:34:04;;;;;;;4.70;2.28;;;;;;;8.24;100.00;101952.94;6340936;28;20052;-79
2022/02/09 17:53:48;;;;;;;3.00;2.30;;;;;;;8.21;100.00;101955.63;6325299;28;20063;-77
2022/02/09 17:56:53;;;;;;;4.85;2.42;;;;;;;8.26;100.00;101962.47;6325219;28;20090;-77
2022/02/09 18:00:08;;;;;;;5.30;2.80;;;;;;;8.20;100.00;101962.63;6325102;28;20055;-78
2022/02/09 18:03:11;;;;;;;4.57;2.13;;;;;;;8.19;100.00;101967.91;6325055;28;20052;-82
2022/02/09 18:06:19;;;;;;;5.70;3.00;;;;;;;8.20;100.00;101980.97;6324910;28;20606;-79
2022/02/09 18:09:27;;;;;;;4.53;2.33;;;;;;;8.21;100.00;101981.81;6320978;28;20044;-75
2022/02/09 18:12:48;;;;;;;2.88;2.10;;;;;;;8.21;100.00;101976.56;6299998;28;20052;-82
2022/02/09 18:26:32;;;;;;;5.47;3.33;;;;;;;8.27;100.00;101984.31;6315338;28;20492;-85
2022/02/09 18:29:28;;;;;;;3.60;2.42;;;;;;;8.24;100.00;101985.22;6325728;28;20048;-81
2022/02/09 18:40:09;;;;;;;5.72;3.05;;;;;;;8.19;100.00;101983.63;6324980;28;20048;-83
2022/02/09 18:42:56;;;;;;;4.45;3.08;;;;;;;8.22;100.00;101981.78;6325600;28;20141;-82
2022/02/09 18:46:04;;;;;;;6.60;2.60;;;;;;;8.24;100.00;101974.75;6325937;28;20422;-85
2022/02/09 18:59:31;;;;;;;5.35;3.00;;;;;;;8.27;100.00;101964.22;6322301;28;20056;-85
2022/02/09 19:02:38;;;;;;;6.00;2.47;;;;;;;8.25;100.00;101976.47;6323663;28;20052;-82
2022/02/09 19:05:44;;;;;;;5.72;3.30;;;;;;;8.20;100.00;101969.63;6325276;28;20055;-81
2022/02/09 19:09:00;;;;;;;5.82;2.92;;;;;;;8.18;100.00;101979.28;6326950;28;20766;-86
2022/02/09 19:15:43;;;;;;;10.30;4.13;;;;;;;8.25;100.00;101968.59;6316591;28;20044;-84
2022/02/09 19:19:02;;;;;;;9.57;4.43;;;;;;;8.15;100.00;101977.59;6322996;28;20047;-87
2022/02/09 19:29:19;;;;;;;10.23;3.92;;;;;;;7.99;100.00;101981.44;6314803;28;20048;-88
2022/02/09 19:32:30;;;;;;;6.18;3.40;;;;;;;7.93;100.00;101985.06;6322999;28;20063;-87
2022/02/09 19:45:56;;;;;;;8.15;4.65;;;;;;;7.48;100.00;101979.94;6290078;28;20046;-85
2022/02/09 19:49:04;;;;;;;10.02;4.57;;;;;;;7.48;100.00;101976.44;6324792;28;20040;-85
2022/02/09 19:52:12;;;;;;;9.15;4.82;;;;;;;7.32;100.00;101976.78;6322568;28;20085;-85
2022/02/09 19:55:32;;;;;;;10.40;5.13;;;;;;;7.21;100.00;101968.28;6322775;28;20135;-85
2022/02/09 19:58:40;;;;;;;9.00;4.25;;;;;;;7.16;100.00;101964.88;6321845;28;20044;-83
2022/02/09 20:01:43;;;;;;;20.57;9.40;;;;;;;7.15;100.00;101971.00;6312269;28;20044;-85
2022/02/09 20:04:44;;;;;;;19.55;8.48;;;;;;;7.24;100.00;101972.59;6315565;28;20048;-87
2022/02/09 20:07:46;;;;;;;7.05;3.78;;;;;;;7.19;100.00;101977.06;6322551;28;20480;-87
2022/02/09 20:10:56;;;;;;;9.02;4.03;;;;;;;7.20;100.00;101973.53;6317493;28;20158;-86
2022/02/09 20:13:57;;;;;;;;;;;;;;;7.14;100.00;101974.53;6320444;28;20055;-86
2022/02/09 20:16:58;;;;;;;13.35;4.75;;;;;;;7.16;100.00;101977.97;6322542;28;19920;-87
2022/02/09 20:20:02;;;;;;;13.40;4.63;;;;;;;7.16;100.00;101971.88;6321878;28;20063;-87
2022/02/09 20:23:05;;;;;;;8.90;4.60;;;;;;;7.10;100.00;101975.47;6322411;28;20044;-86
2022/02/09 20:26:09;;;;;;;12.40;5.80;;;;;;;7.07;100.00;101965.91;6298015;28;20051;-87
2022/02/09 20:29:15;;;;;;;10.20;5.00;;;;;;;7.08;100.00;101969.41;6322543;28;20127;-87
2022/02/09 20:32:20;;;;;;;14.57;5.90;;;;;;;7.10;100.00;101968.50;6322271;28;20131;-86
2022/02/09 20:35:23;;;;;;;12.60;5.18;;;;;;;7.08;100.00;101959.78;6322866;28;20526;-87
2022/02/09 20:38:27;;;;;;;7.43;4.28;;;;;;;7.07;100.00;101965.06;6322104;28;20047;-84
2022/02/09 20:41:32;;;;;;;12.18;5.15;;;;;;;7.01;100.00;101966.06;6314533;28;20048;-87
2022/02/09 20:44:39;;;;;;;11.32;5.40;;;;;;;7.01;100.00;101959.97;6322923;28;20495;-87
2022/02/09 20:47:44;;;;;;;10.10;4.65;;;;;;;7.04;100.00;101959.88;6322690;28;20491;-86
2022/02/09 20:50:46;;;;;;;11.85;5.40;;;;;;;7.01;100.00;101960.81;6322321;28;20079;-87
2022/02/09 20:53:47;;;;;;;15.50;5.85;;;;;;;7.04;100.00;101959.88;6322075;28;20048;-86
2022/02/09 20:56:50;;;;;;;13.13;5.53;;;;;;;7.03;100.00;101958.16;6322405;28;20051;-86
2022/02/09 20:59:53;;;;;;;13.50;6.22;;;;;;;7.05;100.00;101946.81;6322339;28;20048;-87
2022/02/09 21:03:04;;;;;;;12.23;5.03;;;;;;;7.09;100.00;101960.69;6322412;28;20051;-86
2022/02/09 21:06:10;;;;;;;16.27;5.80;;;;;;;7.12;100.00;101956.22;6322420;28;20062;-86
2022/02/09 21:09:28;;;;;;;10.20;5.25;;;;;;;7.07;100.00;101965.91;6322348;28;20048;-87
2022/02/09 21:12:39;;;;;;;12.60;5.15;;;;;;;7.08;100.00;101965.03;6322298;28;20383;-86
2022/02/09 21:15:52;;;;;;;12.73;4.53;;;;;;;7.11;100.00;101956.28;6318493;28;20106;-84
2022/02/09 21:22:51;;;;;;;12.15;5.68;;;;;;;7.19;100.00;101946.53;6297336;28;20044;-85
2022/02/09 21:26:32;;;;;;;10.48;5.55;;;;;;;7.14;100.00;101955.38;6322552;28;20055;-85
2022/02/09 21:33:36;;;;;;;11.00;4.88;;;;;;;7.20;100.00;101960.47;6322024;28;20048;-85
2022/02/09 21:53:48;;;;;;;13.50;6.60;;;;;;;7.24;100.00;101949.91;6293050;28;20040;-85
2022/02/09 21:56:53;;;;;;;12.30;5.82;;;;;;;7.27;100.00;101951.63;6318392;28;20573;-82
2022/02/09 22:00:18;;;;;;;13.25;6.25;;;;;;;7.31;100.00;101955.88;6304288;28;20424;-84
2022/02/09 22:16:50;;;;;;;17.90;6.65;;;;;;;7.41;100.00;101928.66;6325142;28;20490;-85
2022/02/09 22:20:17;;;;;;;12.15;5.75;;;;;;;7.33;100.00;101928.81;6325334;28;20061;-85
2022/02/09 22:26:48;;;;;;;14.15;6.22;;;;;;;7.33;100.00;101918.34;6324861;28;20562;-86
2022/02/09 22:30:20;;;;;;;15.55;6.85;;;;;;;7.27;100.00;101917.63;6325031;28;20048;-86
2022/02/09 22:50:24;;;;;;;12.32;6.32;;;;;;;7.30;100.00;101881.78;6324320;28;20085;-86
2022/02/09 22:56:46;;;;;;;14.65;6.45;;;;;;;7.30;100.00;101873.97;6324203;28;20052;-86
2022/02/09 22:59:58;;;;;;;17.63;7.32;;;;;;;7.36;100.00;101871.22;6324461;28;20055;-86
2022/02/09 23:02:59;;;;;;;14.57;6.63;;;;;;;7.36;100.00;101867.75;6324309;28;20068;-86
2022/02/09 23:06:25;;;;;;;15.00;6.40;;;;;;;7.34;100.00;101862.53;6324314;28;20048;-86
2022/02/09 23:09:44;;;;;;;15.82;6.03;;;;;;;7.36;100.00;101865.13;6324295;28;20055;-87
2022/02/09 23:12:51;;;;;;;16.05;6.75;;;;;;;7.35;100.00;101866.88;6323903;28;20129;-86
2022/02/09 23:16:07;;;;;;;14.70;7.10;;;;;;;7.36;100.00;101865.13;6324036;28;20048;-86
2022/02/09 23:20:08;;;;;;;12.35;6.13;;;;;;;7.38;100.00;101858.97;6323777;28;20633;-86
